^^
Grace C. Lehan Memorial Weather Station Historical Data
 
Daily Summary for January 17, 2022 Units:  English    Metric   Both
Daily Weekly Monthly Yearly
  Current: High: Low: Average:
Temperature: 34.5 °F 44.7 °F 25.3 °F 37.3 °F
Dew Point: 32.7 °F 43.5 °F 22.3 °F 34.7 °F
Humidity: 93% 96% 82% 90%
Wind Speed: 0mph 10.8mph 0mph 2.5mph
Wind Gust: 3mph 24mph - -
WindCalm - - SSE
Pressure: 29.15 in 29.89 in 29.01 in -
Precipitation: 0.13 in      
 
 
Tabular Data for January 17, 2022
Time Temperature Dew Point Pressure Wind Wind Speed Wind Gust Humidity Rainfall Rate (Hourly) solar
00:04 25.3 °F 22.3 °F 29.89 in NNW 1.9 mph 10 mph 88% 0.00 in 0 W/m2
00:09 25.4 °F 22.4 °F 29.88 in NNW 1.6 mph 6 mph 88% 0.00 in 0 W/m2
00:14 25.6 °F 22.7 °F 29.87 in NNW 1.9 mph 6 mph 88.8% 0.00 in 0 W/m2
00:19 25.7 °F 22.9 °F 29.86 in NNW 2.9 mph 7 mph 89% 0.00 in 0 W/m2
00:24 25.8 °F 23 °F 29.85 in NNW 2.6 mph 7 mph 89% 0.00 in 0 W/m2
00:29 26 °F 23.2 °F 29.85 in North 2.2 mph 7 mph 89% 0.00 in 0 W/m2
00:34 26.1 °F 23.3 °F 29.84 in NNW 1.8 mph 7 mph 89% 0.00 in 0 W/m2
00:39 26.2 °F 23.4 °F 29.83 in North 2 mph 5 mph 89% 0.00 in 0 W/m2
00:44 26.3 °F 23.5 °F 29.82 in North 2.9 mph 7 mph 89.1% 0.00 in 0 W/m2
00:49 26.4 °F 23.9 °F 29.81 in North 1 mph 7 mph 90% 0.00 in 0 W/m2
00:54 26.5 °F 24 °F 29.80 in NNW 1.9 mph 7 mph 90% 0.00 in 0 W/m2
00:59 26.6 °F 24.1 °F 29.80 in North 1.9 mph 7 mph 90% 0.00 in 0 W/m2
01:04 26.8 °F 24.3 °F 29.79 in North 2 mph 7 mph 90% 0.00 in 0 W/m2
01:09 27 °F 24.5 °F 29.77 in NE 1.3 mph 7 mph 90.1% 0.00 in 0 W/m2
01:14 27.2 °F 24.9 °F 29.76 in NNE 2.3 mph 7 mph 91% 0.00 in 0 W/m2
01:19 27.4 °F 25.1 °F 29.75 in NNE 1.1 mph 7 mph 91% 0.00 in 0 W/m2
01:24 27.6 °F 25.3 °F 29.75 in NNE 1.6 mph 7 mph 91% 0.00 in 0 W/m2
01:29 27.8 °F 25.5 °F 29.74 in NNE 1.9 mph 7 mph 91% 0.00 in 0 W/m2
01:34 28.1 °F 25.9 °F 29.74 in NE 2.2 mph 9 mph 91.4% 0.00 in 0 W/m2
01:39 28.6 °F 26.6 °F 29.73 in NE 2 mph 9 mph 92% 0.00 in 0 W/m2
01:44 29.1 °F 27 °F 29.71 in NE 4.1 mph 11 mph 92% 0.00 in 0 W/m2
01:49 29.8 °F 28 °F 29.70 in NE 3 mph 11 mph 93% 0.00 in 0 W/m2
01:54 30.4 °F 28.6 °F 29.70 in NE 2.5 mph 13 mph 93% 0.00 in 0 W/m2
01:59 30.8 °F 29.1 °F 29.70 in NE 4.2 mph 13 mph 93% 0.00 in 0 W/m2
02:04 31.2 °F 29.4 °F 29.68 in NE 4.4 mph 13 mph 93% 0.00 in 0 W/m2
02:09 31.6 °F 29.8 °F 29.68 in NE 3.4 mph 15 mph 93% 0.00 in 0 W/m2
02:14 31.8 °F 30 °F 29.67 in NE 3.9 mph 15 mph 93% 0.00 in 0 W/m2
02:19 32.1 °F 30.3 °F 29.66 in NE 3.9 mph 15 mph 93% 0.00 in 0 W/m2
02:24 32.4 °F 30.6 °F 29.66 in NE 3.5 mph 15 mph 93% 0.00 in 0 W/m2
02:29 32.6 °F 30.8 °F 29.66 in NE 3.8 mph 15 mph 92.8% 0.00 in 0 W/m2
02:34 32.8 °F 30.8 °F 29.64 in NE 2.7 mph 15 mph 92% 0.00 in 0 W/m2
02:39 32.9 °F 30.9 °F 29.63 in NNE 3 mph 11 mph 92% 0.00 in 0 W/m2
02:44 33.1 °F 31 °F 29.63 in NE 3.4 mph 11 mph 92% 0.00 in 0 W/m2
02:49 33.2 °F 31.1 °F 29.62 in ENE 2.1 mph 11 mph 92% 0.00 in 0 W/m2
02:54 33.3 °F 31.2 °F 29.61 in NE 3.6 mph 11 mph 92% 0.00 in 0 W/m2
02:59 33.4 °F 31.3 °F 29.59 in ENE 3.9 mph 11 mph 92% 0.00 in 0 W/m2
03:04 33.5 °F 31.4 °F 29.59 in ENE 4.6 mph 11 mph 92% 0.00 in 0 W/m2
03:09 33.6 °F 31.6 °F 29.58 in NE 4.5 mph 13 mph 92.4% 0.00 in 0 W/m2
03:14 33.7 °F 31.9 °F 29.57 in NE 4.2 mph 13 mph 93% 0.00 in 0 W/m2
03:19 33.7 °F 31.9 °F 29.55 in NE 4.8 mph 13 mph 93% 0.00 in 0 W/m2
03:24 33.8 °F 32 °F 29.54 in NE 4.5 mph 13 mph 93% 0.00 in 0 W/m2
03:29 33.9 °F 32.1 °F 29.53 in NE 4.3 mph 13 mph 93% 0.00 in 0 W/m2
03:34 34 °F 32.2 °F 29.53 in ENE 6.2 mph 14 mph 93% 0.00 in 0 W/m2
03:39 34.1 °F 32.3 °F 29.51 in ENE 5.4 mph 14 mph 93% 0.00 in 0 W/m2
03:44 34.2 °F 32.4 °F 29.50 in NE 6.6 mph 14 mph 93% 0.00 in 0 W/m2
03:49 34.3 °F 32.5 °F 29.49 in NE 4.1 mph 14 mph 93% 0.00 in 0 W/m2
03:54 34.4 °F 32.6 °F 29.47 in NE 5.2 mph 14 mph 93% 0.00 in 0 W/m2
03:59 34.4 °F 32.6 °F 29.46 in NE 6.8 mph 15 mph 93% 0.00 in 0 W/m2
04:00 34.5 °F 32.7 °F 29.45 in ENE 8 mph 15 mph 93% 0.00 in 0 W/m2
04:09 34.9 °F 33.2 °F 29.43 in ENE 7.5 mph 17 mph 93.7% 0.00 in 0 W/m2
04:14 35.1 °F 33.5 °F 29.42 in ENE 9.3 mph 24 mph 93.9% 0.00 in 0 W/m2
04:19 35.3 °F 33.8 °F 29.41 in ENE 7.6 mph 24 mph 93.9% 0.00 in 0 W/m2
04:24 35.6 °F 34 °F 29.41 in ENE 9.1 mph 24 mph 93.5% 0.00 in 0 W/m2
04:29 35.9 °F 34.1 °F 29.40 in ENE 7.2 mph 24 mph 93% 0.00 in 0 W/m2
04:34 36.1 °F 34.3 °F 29.37 in ENE 8.6 mph 24 mph 93% 0.00 in 0 W/m2
04:39 36.4 °F 34.6 °F 29.36 in ENE 9.7 mph 24 mph 93% 0.00 in 0 W/m2
04:44 36.6 °F 34.8 °F 29.36 in ENE 6.6 mph 24 mph 93% 0.00 in 0 W/m2
04:49 36.8 °F 35 °F 29.35 in ENE 8.2 mph 24 mph 93% 0.01 in 0 W/m2
04:54 37 °F 35.2 °F 29.35 in ENE 7.8 mph 24 mph 93% 0.01 in 0 W/m2
04:59 37.2 °F 35.4 °F 29.33 in ENE 8.9 mph 24 mph 93% 0.01 in 0 W/m2
05:04 37.5 °F 35.6 °F 29.32 in ENE 10.8 mph 24 mph 93% 0.01 in 0 W/m2
05:09 37.7 °F 35.7 °F 29.31 in ENE 7.4 mph 23 mph 92.3% 0.01 in 0 W/m2
05:14 37.7 °F 35.6 °F 29.31 in ENE 5.4 mph 23 mph 92% 0.01 in 0 W/m2
05:19 37.7 °F 35.6 °F 29.30 in ENE 3.9 mph 23 mph 92% 0.01 in 0 W/m2
05:24 37.7 °F 35.6 °F 29.30 in ENE 5.2 mph 23 mph 92% 0.01 in 0 W/m2
05:29 37.7 °F 35.6 °F 29.30 in NE 3.4 mph 23 mph 92% 0.01 in 0 W/m2
05:34 37.7 °F 35.6 °F 29.29 in NE 3.5 mph 23 mph 92% 0.01 in 0 W/m2
05:39 37.7 °F 35.6 °F 29.28 in East 0.7 mph 9 mph 92% 0.01 in 0 W/m2
05:44 37.7 °F 35.6 °F 29.28 in NE 1 mph 9 mph 92% 0.01 in 0 W/m2
05:49 37.7 °F 35.6 °F 29.26 in NE 1.9 mph 9 mph 92% 0.01 in 0 W/m2
05:54 37.6 °F 35.5 °F 29.25 in NE 2.1 mph 9 mph 92% 0.01 in 0 W/m2
05:59 37.6 °F 35.7 °F 29.25 in NE 2.8 mph 9 mph 92.7% 0.01 in 0 W/m2
06:04 37.7 °F 35.8 °F 29.23 in NE 3.3 mph 9 mph 93% 0.01 in 0 W/m2
06:09 37.7 °F 35.8 °F 29.22 in NE 3.9 mph 9 mph 93% 0.00 in 0 W/m2
06:14 37.6 °F 35.8 °F 29.21 in NE 1.9 mph 9 mph 93% 0.00 in 0 W/m2
06:19 37.7 °F 35.8 °F 29.22 in NE 1.5 mph 9 mph 93% 0.00 in 0 W/m2
06:24 37.8 °F 36.1 °F 29.21 in NE 3 mph 10 mph 93.5% 0.00 in 0 W/m2
06:29 38 °F 36.5 °F 29.20 in NE 1.7 mph 10 mph 94% 0.00 in 0 W/m2
06:34 38.2 °F 36.6 °F 29.20 in ENE 3.4 mph 10 mph 94% 0.00 in 0 W/m2
06:39 38.3 °F 36.7 °F 29.19 in NE 1.7 mph 7 mph 94% 0.00 in 0 W/m2
06:44 38.4 °F 36.8 °F 29.19 in Calm   7 mph 94% 0.00 in 0 W/m2
06:49 38.5 °F 36.9 °F 29.19 in NE 0.9 mph 7 mph 94% 0.00 in 0 W/m2
06:54 38.5 °F 36.9 °F 29.18 in NE 0.1 mph 7 mph 94% 0.00 in 0 W/m2
06:59 38.5 °F 36.9 °F 29.17 in Calm   7 mph 94% 0.00 in 0 W/m2
07:04 38.5 °F 36.9 °F 29.16 in Calm   7 mph 94% 0.00 in 0 W/m2
07:09 38.4 °F 36.9 °F 29.17 in Calm     94% 0.00 in 0 W/m2
07:14 38.6 °F 37 °F 29.16 in Calm     94% 0.00 in 0 W/m2
07:19 38.6 °F 37 °F 29.16 in Calm     94% 0.00 in 0 W/m2
07:24 38.6 °F 37 °F 29.15 in Calm     94% 0.00 in 0 W/m2
07:29 38.6 °F 37 °F 29.14 in Calm     94% 0.00 in 0 W/m2
07:34 38.5 °F 36.9 °F 29.14 in NE 0.4 mph 4 mph 94% 0.00 in 0 W/m2
07:39 38.6 °F 37 °F 29.14 in Calm   4 mph 94% 0.00 in 0 W/m2
07:44 39 °F 37.7 °F 29.14 in Calm   4 mph 94.9% 0.00 in 0 W/m2
07:49 39.4 °F 38.1 °F 29.14 in Calm   4 mph 95% 0.00 in 0 W/m2
07:54 39.7 °F 38.4 °F 29.14 in Calm   4 mph 95% 0.00 in 0 W/m2
07:59 39.9 °F 38.6 °F 29.14 in Calm   4 mph 95% 0.00 in 0 W/m2
08:00 40 °F 38.7 °F 29.14 in Calm   4 mph 95% 0.00 in 0 W/m2
08:09 40.7 °F 39.4 °F 29.13 in Calm     95% 0.00 in 9 W/m2
08:14 41.5 °F 40.2 °F 29.13 in Calm     95.3% 0.00 in 11 W/m2
08:19 42.1 °F 40.8 °F 29.13 in ENE 0.1 mph 1 mph 95.5% 0.00 in 21 W/m2
08:24 42.6 °F 41.5 °F 29.12 in Calm   1 mph 95.9% 0.00 in 65 W/m2
08:29 43.2 °F 42.1 °F 29.12 in Calm   1 mph 96% 0.00 in 79 W/m2
08:34 43.6 °F 42.5 °F 29.11 in ENE 0.1 mph 2 mph 96% 0.00 in 60 W/m2
08:39 43.8 °F 42.7 °F 29.11 in ENE 0.1 mph 2 mph 96% 0.00 in 60 W/m2
08:44 43.9 °F 42.8 °F 29.11 in Calm   2 mph 95.8% 0.00 in 104 W/m2
08:49 44.1 °F 42.9 °F 29.10 in ENE 0.1 mph 2 mph 95.4% 0.00 in 93 W/m2
08:54 44.4 °F 43.3 °F 29.09 in ENE 0.3 mph 2 mph 96% 0.00 in 114 W/m2
08:59 44.6 °F 43.5 °F 29.09 in ENE 0.1 mph 2 mph 96% 0.00 in 77 W/m2
09:04 44.7 °F 43.4 °F 29.09 in Calm   2 mph 95.2% 0.00 in 23 W/m2
09:09 44.6 °F 43.3 °F 29.09 in ENE 0.7 mph 4 mph 95% 0.00 in 63 W/m2
09:14 44.6 °F 43.3 °F 29.08 in ENE 0.8 mph 4 mph 95% 0.00 in 63 W/m2
09:19 44.6 °F 43.3 °F 29.08 in SE 2.1 mph 6 mph 95% 0.00 in 44 W/m2
09:24 44.6 °F 43.3 °F 29.08 in South 3.6 mph 13 mph 95% 0.00 in 32 W/m2
09:29 44.5 °F 43.2 °F 29.07 in South 2.9 mph 13 mph 95% 0.00 in 18 W/m2
09:34 44.4 °F 43 °F 29.08 in SSW 5.9 mph 16 mph 95% 0.02 in 9 W/m2
09:39 43.9 °F 42.3 °F 29.08 in SSW 4.2 mph 16 mph 94% 0.03 in 14 W/m2
09:44 43.5 °F 41.8 °F 29.08 in SW 3.8 mph 16 mph 94% 0.04 in 30 W/m2
09:49 43 °F 41.2 °F 29.08 in SW 3 mph 16 mph 93.2% 0.05 in 35 W/m2
09:54 42.7 °F 40.8 °F 29.08 in SW 3.7 mph 16 mph 93% 0.05 in 35 W/m2
09:59 42.4 °F 40.5 °F 29.07 in SW 3.7 mph 16 mph 93% 0.07 in 21 W/m2
10:04 42.1 °F 40.2 °F 29.07 in SSW 2.5 mph 16 mph 93% 0.08 in 30 W/m2
10:09 41.8 °F 39.9 °F 29.07 in SSW 2.4 mph 10 mph 93% 0.08 in 26 W/m2
10:14 41.5 °F 39.7 °F 29.07 in SW 1 mph 10 mph 93% 0.09 in 21 W/m2
10:19 41.4 °F 39.5 °F 29.07 in SW 2.1 mph 12 mph 93% 0.10 in 60 W/m2
10:24 41.3 °F 39.4 °F 29.07 in SW 2.2 mph 12 mph 93% 0.10 in 104 W/m2
10:29 41.3 °F 39.4 °F 29.07 in SW 1.6 mph 12 mph 93% 0.10 in 146 W/m2
10:34 41.3 °F 39.7 °F 29.06 in SW 3.4 mph 12 mph 93.9% 0.10 in 128 W/m2
10:39 41.3 °F 39.6 °F 29.06 in SSW 2.5 mph 13 mph 93.8% 0.10 in 116 W/m2
10:44 41.2 °F 39.4 °F 29.06 in SSW 1.8 mph 13 mph 93% 0.10 in 413 W/m2
10:49 41.5 °F 39.9 °F 29.05 in SW 0.9 mph 13 mph 93.8% 0.10 in 455 W/m2
10:54 42 °F 40.4 °F 29.05 in SSW 1.1 mph 13 mph 94% 0.10 in 478 W/m2
10:59 42.4 °F 40.8 °F 29.05 in SSW 0.9 mph 13 mph 94% 0.10 in 478 W/m2
11:04 42.6 °F 41 °F 29.05 in South 2.1 mph 13 mph 93.8% 0.10 in 434 W/m2
11:09 42.5 °F 40.6 °F 29.05 in South 1 mph 11 mph 93% 0.03 in 160 W/m2
11:14 42.2 °F 40.3 °F 29.05 in SSW 2.4 mph 11 mph 92.8% 0.04 in 104 W/m2
11:19 41.7 °F 39.6 °F 29.04 in SSW 2.1 mph 11 mph 92% 0.05 in 137 W/m2
11:24 41.4 °F 39.3 °F 29.04 in SSW 1.8 mph 11 mph 92% 0.05 in 221 W/m2
11:29 41.5 °F 39.5 °F 29.04 in SW 1.4 mph 11 mph 92.4% 0.05 in 197 W/m2
11:34 41.8 °F 39.9 °F 29.03 in SW 1.8 mph 11 mph 93% 0.05 in 322 W/m2
11:39 41.9 °F 40.1 °F 29.03 in SSW 1.8 mph 9 mph 93% 0.02 in 374 W/m2
11:44 42.3 °F 40.4 °F 29.02 in SSW 2.1 mph 9 mph 93% 0.02 in 188 W/m2
11:49 42.3 °F 40.2 °F 29.03 in SSW 5.8 mph 15 mph 91.9% 0.02 in 167 W/m2
11:54 42.1 °F 39.2 °F 29.05 in SSW 3 mph 15 mph 89.4% 0.02 in 172 W/m2
11:59 42 °F 38.7 °F 29.06 in SSW 2.9 mph 15 mph 88% 0.02 in 102 W/m2
12:00 41.9 °F 38.6 °F 29.06 in SW 1 mph 15 mph 88% 0.02 in 65 W/m2
12:09 41.6 °F 37.8 °F 29.04 in SW 4.3 mph 15 mph 86.1% 0.02 in 142 W/m2
12:14 41.3 °F 37.2 °F 29.04 in SW 5.2 mph 15 mph 85% 0.02 in 142 W/m2
12:19 41.1 °F 36.7 °F 29.02 in SW 4.2 mph 15 mph 84.1% 0.02 in 185 W/m2
12:24 41.1 °F 36.6 °F 29.02 in SW 4 mph 15 mph 84% 0.02 in 185 W/m2
12:29 41.1 °F 36.6 °F 29.02 in SW 2.9 mph 15 mph 84% 0.02 in 153 W/m2
12:34 41.1 °F 36.6 °F 29.02 in SW 2.4 mph 15 mph 84% 0.02 in 130 W/m2
12:39 41 °F 36.5 °F 29.02 in SSW 2.4 mph 9 mph 84% 0.00 in 142 W/m2
12:44 41 °F 36.3 °F 29.02 in SSW 1.3 mph 9 mph 83.3% 0.00 in 93 W/m2
12:49 40.9 °F 36.4 °F 29.01 in SW 3.3 mph 13 mph 83.6% 0.00 in 62 W/m2
12:54 40.8 °F 36.1 °F 29.01 in SSW 1.9 mph 13 mph 83% 0.00 in 47 W/m2
12:59 40.8 °F 36 °F 29.01 in SSW 1.7 mph 13 mph 83% 0.00 in 49 W/m2
13:04 40.7 °F 36.2 °F 29.01 in SSW 1.8 mph 13 mph 83.8% 0.00 in 67 W/m2
13:09 40.7 °F 36.2 °F 29.01 in SW 2.4 mph 10 mph 84% 0.00 in 102 W/m2
13:14 40.6 °F 36.2 °F 29.01 in SW 5.3 mph 13 mph 84% 0.00 in 98 W/m2
13:19 40.6 °F 35.8 °F 29.01 in SW 2.4 mph 13 mph 83.1% 0.00 in 69 W/m2
13:24 40.5 °F 35.8 °F 29.01 in SW 2.7 mph 13 mph 83% 0.00 in 58 W/m2
13:29 40.5 °F 35.5 °F 29.01 in SW 2.5 mph 13 mph 82.4% 0.00 in 46 W/m2
13:34 40.4 °F 35.5 °F 29.01 in SW 3 mph 13 mph 82.3% 0.00 in 51 W/m2
13:39 40.4 °F 35.6 °F 29.01 in SW 3.6 mph 13 mph 83% 0.00 in 54 W/m2
13:44 40.3 °F 35.6 °F 29.02 in SSW 3.5 mph 13 mph 83% 0.00 in 54 W/m2
13:49 40.1 °F 35.5 °F 29.03 in SW 4.4 mph 13 mph 83.4% 0.00 in 60 W/m2
13:54 40 °F 35.5 °F 29.03 in SW 4.3 mph 13 mph 84% 0.00 in 49 W/m2
13:59 39.8 °F 35.6 °F 29.03 in SW 4.4 mph 14 mph 84.9% 0.00 in 54 W/m2
14:04 39.7 °F 35.3 °F 29.03 in SW 2.6 mph 14 mph 84.1% 0.00 in 42 W/m2
14:09 39.6 °F 35.4 °F 29.03 in SW 2 mph 9 mph 84.8% 0.00 in 35 W/m2
14:14 39.5 °F 35.4 °F 29.04 in SSW 3.3 mph 10 mph 85% 0.00 in 63 W/m2
14:19 39.5 °F 35.4 °F 29.04 in SW 1.5 mph 10 mph 85% 0.00 in 53 W/m2
14:24 39.4 °F 35.3 °F 29.04 in SW 2.2 mph 10 mph 85% 0.00 in 39 W/m2
14:29 39.4 °F 35.3 °F 29.04 in SW 1.9 mph 10 mph 85% 0.00 in 28 W/m2
14:34 39.3 °F 34.9 °F 29.04 in SW 1.3 mph 10 mph 84.1% 0.00 in 42 W/m2
14:39 39.3 °F 34.9 °F 29.05 in SW 3.1 mph 8 mph 84% 0.00 in 37 W/m2
14:44 39.2 °F 34.6 °F 29.05 in SW 4.5 mph 12 mph 83.6% 0.00 in 23 W/m2
14:49 39 °F 34.3 °F 29.05 in SW 2.7 mph 12 mph 83% 0.00 in 16 W/m2
14:54 38.9 °F 34.2 °F 29.06 in SW 3.5 mph 12 mph 83% 0.00 in 14 W/m2
14:59 38.8 °F 34.1 °F 29.06 in SW 3.3 mph 12 mph 83% 0.00 in 12 W/m2
15:04 38.7 °F 34 °F 29.06 in SW 2.3 mph 12 mph 83% 0.00 in 12 W/m2
15:09 38.6 °F 34.1 °F 29.06 in SW 1.5 mph 10 mph 83.7% 0.00 in 12 W/m2
15:14 38.6 °F 34.1 °F 29.06 in SW 2.4 mph 10 mph 84% 0.00 in 11 W/m2
15:19 38.5 °F 34.1 °F 29.06 in SW 2.7 mph 12 mph 84% 0.00 in 11 W/m2
15:24 38.4 °F 34 °F 29.06 in SW 3.5 mph 12 mph 84% 0.00 in 11 W/m2
15:29 38.3 °F 33.9 °F 29.06 in SW 1.6 mph 12 mph 84% 0.00 in 11 W/m2
15:34 38.2 °F 33.8 °F 29.06 in SW 3.1 mph 12 mph 84% 0.00 in 12 W/m2
15:39 38.1 °F 33.7 °F 29.06 in SW 5.1 mph 13 mph 84% 0.00 in 12 W/m2
15:44 38.1 °F 33.7 °F 29.06 in SW 3.7 mph 13 mph 84% 0.00 in 14 W/m2
15:49 38 °F 33.6 °F 29.07 in SW 3.7 mph 13 mph 84% 0.00 in 11 W/m2
15:54 38 °F 33.6 °F 29.07 in SW 3.7 mph 13 mph 84% 0.00 in 14 W/m2
15:59 38 °F 33.4 °F 29.07 in SW 2.3 mph 13 mph 83.2% 0.00 in 14 W/m2
16:00 38 °F 33.3 °F 29.07 in WSW 4 mph 13 mph 83% 0.00 in 12 W/m2
16:09 37.9 °F 33.2 °F 29.08 in SW 5.2 mph 13 mph 83% 0.00 in 12 W/m2
16:14 37.9 °F 33.2 °F 29.08 in SW 3.6 mph 13 mph 83% 0.00 in 11 W/m2
16:19 37.9 °F 33 °F 29.08 in SW 2.4 mph 13 mph 82.1% 0.00 in 11 W/m2
16:24 37.9 °F 33 °F 29.08 in SW 1.6 mph 13 mph 82% 0.00 in 7 W/m2
16:29 37.9 °F 33.2 °F 29.08 in SW 2.1 mph 13 mph 83% 0.00 in 5 W/m2
16:34 37.9 °F 33.2 °F 29.09 in SW 1.1 mph 13 mph 82.9% 0.00 in 0 W/m2
16:39 37.9 °F 33.2 °F 29.08 in SW 1.9 mph 7 mph 83% 0.00 in 0 W/m2
16:44 37.9 °F 33.2 °F 29.08 in SW 1.9 mph 7 mph 83% 0.00 in 0 W/m2
16:49 37.8 °F 33.1 °F 29.09 in SW 1.6 mph 9 mph 83% 0.00 in 0 W/m2
16:54 37.8 °F 33.1 °F 29.09 in SW 1.7 mph 9 mph 83% 0.00 in 0 W/m2
16:59 37.7 °F 33 °F 29.10 in SW 2.2 mph 9 mph 83% 0.00 in 0 W/m2
17:04 37.7 °F 33 °F 29.10 in SW 2.2 mph 10 mph 83% 0.00 in 0 W/m2
17:09 37.6 °F 32.9 °F 29.10 in SW 0.7 mph 10 mph 83% 0.00 in 0 W/m2
17:14 37.5 °F 32.9 °F 29.10 in SW 1.8 mph 10 mph 83.1% 0.00 in 0 W/m2
17:19 37.5 °F 33.1 °F 29.10 in SW 2.2 mph 10 mph 84% 0.00 in 0 W/m2
17:24 37.4 °F 33 °F 29.10 in SW 2.2 mph 10 mph 84% 0.00 in 0 W/m2
17:29 37.3 °F 32.9 °F 29.10 in SW 2 mph 10 mph 84% 0.00 in 0 W/m2
17:34 37.3 °F 32.9 °F 29.11 in SW 1.7 mph 10 mph 84% 0.00 in 0 W/m2
17:39 37.3 °F 33 °F 29.11 in WSW 1.5 mph 6 mph 84.3% 0.00 in 0 W/m2
17:44 37.2 °F 33.1 °F 29.11 in WSW 0.9 mph 6 mph 85% 0.00 in 0 W/m2
17:49 37.1 °F 33.1 °F 29.11 in SW 1.5 mph 7 mph 85.1% 0.00 in 0 W/m2
17:54 37 °F 33.2 °F 29.12 in SW 1.1 mph 7 mph 86% 0.00 in 0 W/m2
17:59 36.7 °F 33.1 °F 29.12 in SW 0.7 mph 7 mph 86.7% 0.00 in 0 W/m2
18:04 36.5 °F 33.1 °F 29.12 in SW 0.1 mph 7 mph 87.5% 0.00 in 0 W/m2
18:09 36.2 °F 33 °F 29.12 in SW 1 mph 5 mph 88% 0.00 in 0 W/m2
18:14 36 °F 33 °F 29.13 in SW 1.2 mph 5 mph 88.8% 0.00 in 0 W/m2
18:19 35.8 °F 33 °F 29.13 in Calm   5 mph 89.3% 0.00 in 0 W/m2
18:24 35.6 °F 33 °F 29.13 in SW 0.4 mph 5 mph 90% 0.00 in 0 W/m2
18:29 35.5 °F 32.9 °F 29.13 in SW 0.3 mph 5 mph 90% 0.00 in 0 W/m2
18:34 35.4 °F 32.8 °F 29.13 in SW 0.1 mph 5 mph 90.4% 0.00 in 0 W/m2
18:39 35.3 °F 32.9 °F 29.13 in Calm   2 mph 91% 0.00 in 0 W/m2
18:44 35.1 °F 32.8 °F 29.13 in Calm   2 mph 91% 0.00 in 0 W/m2
18:49 35 °F 32.7 °F 29.13 in SW 0.1 mph 2 mph 91% 0.00 in 0 W/m2
18:54 35 °F 32.9 °F 29.13 in Calm   2 mph 92% 0.00 in 0 W/m2
18:59 34.9 °F 32.8 °F 29.13 in Calm   2 mph 92% 0.00 in 0 W/m2
19:04 34.8 °F 32.7 °F 29.13 in Calm   2 mph 92% 0.00 in 0 W/m2
19:09 34.7 °F 32.6 °F 29.13 in Calm   1 mph 92% 0.00 in 0 W/m2
19:14 34.7 °F 32.6 °F 29.14 in Calm   1 mph 92% 0.00 in 0 W/m2
19:19 34.6 °F 32.5 °F 29.14 in SW 0.1 mph 1 mph 92% 0.00 in 0 W/m2
19:24 34.6 °F 32.8 °F 29.14 in SW 0.1 mph 2 mph 93% 0.00 in 0 W/m2
19:29 34.5 °F 32.7 °F 29.14 in Calm   2 mph 93% 0.00 in 0 W/m2
19:34 34.5 °F 32.7 °F 29.14 in Calm   2 mph 93% 0.00 in 0 W/m2
19:39 34.5 °F 32.7 °F 29.15 in SW 0.2 mph 2 mph 93% 0.00 in 0 W/m2
19:44 34.5 °F 32.7 °F 29.15 in SW 0.2 mph 3 mph 93% 0.00 in 0 W/m2
19:48 34.5 °F 32.7 °F 29.15 in Calm   3 mph 93% 0.00 in 0 W/m2
Hartford County Weather
Compliments of Weather Underground - 2 mb